createdAt,value
2022-08-17T00:00:39.723Z,80.90
2022-08-17T00:03:20.696Z,81.60
2022-08-17T00:06:22.736Z,82.40
2022-08-17T00:09:02.947Z,83.50
2022-08-17T00:11:35.703Z,85.00
2022-08-17T00:14:11.657Z,83.50
2022-08-17T00:16:55.488Z,83.90
2022-08-17T00:19:26.036Z,84.40
2022-08-17T00:22:30.961Z,86.10
2022-08-17T00:24:44.903Z,85.60
2022-08-17T00:27:14.710Z,85.00
2022-08-17T00:29:42.302Z,86.20
2022-08-17T00:33:11.806Z,86.80
2022-08-17T00:34:56.453Z,87.20
2022-08-17T00:37:23.502Z,84.70
2022-08-17T00:39:50.710Z,89.00
2022-08-17T00:42:20.181Z,86.50
2022-08-17T00:44:47.305Z,87.10
2022-08-17T00:47:14.405Z,86.70
2022-08-17T00:49:41.670Z,87.70
2022-08-17T00:52:16.874Z,87.70
2022-08-17T00:54:49.181Z,89.30
2022-08-17T00:57:24.592Z,90.10
2022-08-17T01:00:03.891Z,89.50
2022-08-17T01:02:42.261Z,89.40
2022-08-17T01:05:31.001Z,89.10
2022-08-17T01:08:01.025Z,89.60
2022-08-17T01:10:58.656Z,90.30
2022-08-17T01:13:30.725Z,89.50
2022-08-17T01:16:10.058Z,90.50
2022-08-17T01:18:38.018Z,89.20
2022-08-17T01:21:20.425Z,90.60
2022-08-17T01:23:47.502Z,90.60
2022-08-17T01:26:14.420Z,90.30
2022-08-17T01:28:54.926Z,90.20
2022-08-17T01:31:28.848Z,91.00
2022-08-17T01:34:01.912Z,90.10
2022-08-17T01:36:29.523Z,90.60
2022-08-17T01:38:56.970Z,90.40
2022-08-17T01:41:24.496Z,90.80
2022-08-17T01:43:59.136Z,90.50
2022-08-17T01:46:34.094Z,90.60
2022-08-17T01:49:01.725Z,90.90
2022-08-17T01:51:32.831Z,90.60
2022-08-17T01:54:08.412Z,90.90
2022-08-17T01:56:41.762Z,90.90
2022-08-17T01:59:10.958Z,90.90
2022-08-17T02:01:38.701Z,90.80
2022-08-17T02:04:08.384Z,90.80
2022-08-17T02:06:52.753Z,91.50
2022-08-17T02:09:26.192Z,91.50
2022-08-17T02:12:37.421Z,91.10
2022-08-17T02:14:47.520Z,91.70
2022-08-17T02:17:14.639Z,91.80
2022-08-17T02:19:41.877Z,91.30
2022-08-17T02:22:10.124Z,91.20
2022-08-17T02:25:00.952Z,91.40
2022-08-17T02:27:26.790Z,92.40
2022-08-17T02:29:54.155Z,91.70
2022-08-17T02:32:28.164Z,92.10
2022-08-17T02:34:59.565Z,91.70
2022-08-17T02:37:30.014Z,91.70
2022-08-17T02:40:04.506Z,91.80
2022-08-17T02:42:38.562Z,92.40
2022-08-17T02:45:12.343Z,92.20
2022-08-17T02:47:41.367Z,91.80
2022-08-17T02:50:12.372Z,92.80
2022-08-17T02:52:44.198Z,92.30
2022-08-17T02:55:21.363Z,92.30
2022-08-17T02:57:50.044Z,92.90
2022-08-17T03:00:28.770Z,92.60
2022-08-17T03:02:57.845Z,92.80
2022-08-17T03:05:29.594Z,92.70
2022-08-17T03:07:57.160Z,92.80
2022-08-17T03:10:25.644Z,92.80
2022-08-17T03:12:54.140Z,92.80
2022-08-17T03:15:26.213Z,92.90
2022-08-17T03:17:56.653Z,93.10
2022-08-17T03:20:25.930Z,93.10
2022-08-17T03:23:02.953Z,93.10
2022-08-17T03:25:38.572Z,93.20
2022-08-17T03:28:07.115Z,93.50
2022-08-17T03:30:35.265Z,93.30
2022-08-17T03:33:07.694Z,93.50
2022-08-17T03:35:37.634Z,93.60
2022-08-17T03:38:04.863Z,93.60
2022-08-17T03:40:34.529Z,93.90
2022-08-17T03:43:23.078Z,93.90
2022-08-17T03:46:10.812Z,94.60
2022-08-17T03:49:13.455Z,94.30
2022-08-17T03:51:59.273Z,94.20
2022-08-17T03:54:44.896Z,94.30
2022-08-17T03:57:12.971Z,94.70
2022-08-17T03:59:40.901Z,94.50
2022-08-17T04:02:33.665Z,95.00
2022-08-17T04:05:01.380Z,95.20
2022-08-17T04:07:31.397Z,95.00
2022-08-17T04:09:59.816Z,95.00
2022-08-17T04:12:31.633Z,95.60
2022-08-17T04:14:59.396Z,95.60
2022-08-17T04:17:29.317Z,96.00
2022-08-17T04:19:59.231Z,95.40
2022-08-17T04:22:31.402Z,95.60
2022-08-17T04:25:18.029Z,95.50
2022-08-17T04:27:45.066Z,96.10
2022-08-17T04:30:13.293Z,95.60
2022-08-17T04:33:15.766Z,95.80
2022-08-17T04:35:48.931Z,96.60
2022-08-17T04:38:26.925Z,96.00
2022-08-17T04:41:14.369Z,96.10
2022-08-17T04:43:43.696Z,97.30
2022-08-17T04:46:17.407Z,96.40
2022-08-17T04:48:49.328Z,97.30
2022-08-17T04:51:39.460Z,97.60
2022-08-17T04:54:20.611Z,97.80
2022-08-17T04:56:48.274Z,97.20
2022-08-17T04:59:21.901Z,98.30
2022-08-17T05:01:51.505Z,98.10
2022-08-17T05:04:34.073Z,99.00
2022-08-17T05:07:04.459Z,99.10
2022-08-17T05:09:31.619Z,99.20
2022-08-17T05:12:02.354Z,99.60
2022-08-17T05:14:32.905Z,99.60
2022-08-17T05:17:07.159Z,99.90
2022-08-17T05:19:38.543Z,99.90
2022-08-17T05:22:06.271Z,99.90
2022-08-17T05:24:40.785Z,99.40
2022-08-17T05:27:10.894Z,99.70
2022-08-17T05:29:45.748Z,99.50
2022-08-17T05:32:38.089Z,99.70
2022-08-17T05:35:01.647Z,99.90
2022-08-17T05:37:28.691Z,99.70
2022-08-17T05:39:55.720Z,99.40
2022-08-17T05:42:23.219Z,99.90
2022-08-17T05:44:50.314Z,99.40
2022-08-17T05:47:18.699Z,99.40
2022-08-17T05:49:49.038Z,99.80
2022-08-17T05:52:40.692Z,99.30
2022-08-17T05:55:35.565Z,99.50
2022-08-17T05:58:17.481Z,99.40
2022-08-17T06:01:07.777Z,99.10
2022-08-17T06:04:09.486Z,99.10
2022-08-17T06:07:21.150Z,99.00
2022-08-17T06:10:16.445Z,99.00
2022-08-17T06:13:51.049Z,98.70
2022-08-17T06:16:33.794Z,98.70
2022-08-17T06:19:40.565Z,98.30
2022-08-17T06:22:12.992Z,98.30
2022-08-17T06:24:51.475Z,97.90
2022-08-17T06:27:45.264Z,97.80
2022-08-17T06:30:20.513Z,97.90
2022-08-17T06:32:51.473Z,97.60
2022-08-17T06:35:34.049Z,97.90
2022-08-17T06:38:37.402Z,97.30
2022-08-17T06:41:23.272Z,97.30
2022-08-17T06:44:43.451Z,97.00
2022-08-17T06:47:36.071Z,96.90
2022-08-17T06:50:29.027Z,97.00
2022-08-17T06:53:43.513Z,96.90
2022-08-17T06:56:19.307Z,96.90
2022-08-17T06:58:46.726Z,96.80
2022-08-17T07:01:29.323Z,97.30
2022-08-17T07:04:31.802Z,97.00
2022-08-17T07:07:27.412Z,96.90
2022-08-17T07:10:00.098Z,97.00
2022-08-17T07:12:38.524Z,96.90
2022-08-17T07:15:14.689Z,96.80
2022-08-17T07:17:47.990Z,96.70
2022-08-17T07:20:24.885Z,97.30
2022-08-17T07:23:09.192Z,96.80
2022-08-17T07:25:36.494Z,96.40
2022-08-17T07:28:07.774Z,96.20
2022-08-17T07:30:53.668Z,96.30
2022-08-17T07:33:29.046Z,96.30
2022-08-17T07:36:00.268Z,96.20
2022-08-17T07:38:31.345Z,96.10
2022-08-17T07:41:01.981Z,96.00
2022-08-17T07:43:40.868Z,95.90
2022-08-17T07:46:52.689Z,96.00
2022-08-17T07:49:46.293Z,95.90
2022-08-17T07:52:51.828Z,95.90
2022-08-17T07:55:35.410Z,95.90
2022-08-17T07:58:03.459Z,95.80
2022-08-17T08:00:32.708Z,95.60
2022-08-17T08:03:23.711Z,95.70
2022-08-17T08:06:01.942Z,95.60
2022-08-17T08:08:42.357Z,95.50
2022-08-17T08:11:15.115Z,95.50
2022-08-17T08:13:45.666Z,95.40
2022-08-17T08:16:21.231Z,95.30
2022-08-17T08:18:56.779Z,95.20
2022-08-17T08:21:55.210Z,95.10
2022-08-17T08:25:15.072Z,95.00
2022-08-17T08:28:13.925Z,94.90
2022-08-17T08:30:49.744Z,94.70
2022-08-17T08:33:31.025Z,94.80
2022-08-17T08:37:12.668Z,95.00
2022-08-17T08:39:42.187Z,94.70
2022-08-17T08:42:32.868Z,94.70
2022-08-17T08:45:16.641Z,94.70
2022-08-17T08:48:53.226Z,94.40
2022-08-17T08:51:41.620Z,94.30
2022-08-17T08:54:28.484Z,94.20
2022-08-17T08:57:29.183Z,94.10
2022-08-17T09:00:20.048Z,93.70
2022-08-17T09:03:37.606Z,93.10
2022-08-17T09:06:45.145Z,93.20
2022-08-17T09:09:42.629Z,93.20
2022-08-17T09:12:49.763Z,93.20
2022-08-17T09:15:40.193Z,93.10
2022-08-17T09:19:01.132Z,93.00
2022-08-17T09:21:48.423Z,93.00
2022-08-17T09:24:43.708Z,92.70
2022-08-17T09:27:20.429Z,92.90
2022-08-17T09:30:00.887Z,92.90
2022-08-17T09:32:41.083Z,93.00
2022-08-17T09:35:57.335Z,93.40
2022-08-17T09:39:01.707Z,93.70
2022-08-17T09:41:51.823Z,93.80
2022-08-17T09:44:36.077Z,93.60
2022-08-17T09:47:31.958Z,93.70
2022-08-17T09:51:05.224Z,94.10
2022-08-17T09:53:37.569Z,94.30
2022-08-17T09:56:19.389Z,93.80
2022-08-17T09:59:17.310Z,94.30
2022-08-17T10:02:06.106Z,94.20
2022-08-17T10:04:53.745Z,94.70
2022-08-17T10:08:08.711Z,95.10
2022-08-17T10:11:07.109Z,95.80
2022-08-17T10:13:47.225Z,97.00
2022-08-17T10:16:38.669Z,96.80
2022-08-17T10:19:22.891Z,98.20
2022-08-17T10:22:34.586Z,98.50
2022-08-17T10:25:42.566Z,99.10
2022-08-17T10:28:28.910Z,99.80
2022-08-17T10:31:32.962Z,99.90
2022-08-17T10:34:20.697Z,99.90
2022-08-17T10:37:33.724Z,99.90
2022-08-17T10:40:32.498Z,99.90
2022-08-17T10:43:36.756Z,99.90
2022-08-17T10:46:31.310Z,99.90
2022-08-17T10:49:34.040Z,99.90
2022-08-17T10:52:30.437Z,99.90
2022-08-17T10:55:14.660Z,99.90
2022-08-17T10:57:45.939Z,99.90
2022-08-17T11:00:27.008Z,99.90
2022-08-17T11:02:57.975Z,99.90
2022-08-17T11:05:43.973Z,99.90
2022-08-17T11:09:24.678Z,99.90
2022-08-17T11:12:09.122Z,99.90
2022-08-17T11:15:09.944Z,99.90
2022-08-17T11:18:17.309Z,99.90
2022-08-17T11:21:13.546Z,99.90
2022-08-17T11:23:58.850Z,99.90
2022-08-17T11:26:37.296Z,99.90
2022-08-17T11:29:16.875Z,99.90
2022-08-17T11:31:59.288Z,99.90
2022-08-17T11:34:30.227Z,99.90
2022-08-17T11:37:40.799Z,99.90
2022-08-17T11:40:25.332Z,99.90
2022-08-17T11:43:25.342Z,99.90
2022-08-17T11:46:07.312Z,99.90
2022-08-17T11:49:11.267Z,99.90
2022-08-17T11:52:04.831Z,99.90
2022-08-17T11:54:48.672Z,99.90
2022-08-17T11:57:27.689Z,99.90
2022-08-17T12:00:30.206Z,99.90
2022-08-17T12:03:32.428Z,99.90
2022-08-17T12:06:49.121Z,99.90
2022-08-17T12:09:24.863Z,99.90
2022-08-17T12:12:12.410Z,99.90
2022-08-17T12:17:40.166Z,99.90
2022-08-17T12:20:31.044Z,99.90
2022-08-17T12:23:41.944Z,99.90
2022-08-17T12:26:20.331Z,99.90
2022-08-17T12:28:57.511Z,99.90
2022-08-17T12:31:36.866Z,99.90
2022-08-17T12:34:05.206Z,99.90
2022-08-17T12:36:33.921Z,99.90
2022-08-17T12:39:14.182Z,99.90
2022-08-17T12:41:50.190Z,99.90
2022-08-17T12:44:32.061Z,99.90
2022-08-17T12:46:59.054Z,99.90
2022-08-17T12:49:32.505Z,99.90
2022-08-17T12:52:14.311Z,99.90
2022-08-17T12:54:57.226Z,99.90
2022-08-17T12:57:37.863Z,99.90
2022-08-17T13:00:29.299Z,99.90
2022-08-17T13:03:09.553Z,99.90
2022-08-17T13:06:07.264Z,99.90
2022-08-17T13:08:43.202Z,99.90
2022-08-17T13:11:24.573Z,99.90
2022-08-17T13:13:56.048Z,99.90
2022-08-17T13:16:27.810Z,99.90
2022-08-17T13:19:09.759Z,99.90
2022-08-17T13:21:43.708Z,99.90
2022-08-17T13:24:14.610Z,99.90
2022-08-17T13:27:07.833Z,99.90
2022-08-17T13:29:39.278Z,99.90
2022-08-17T13:32:13.087Z,99.90
2022-08-17T13:35:14.085Z,99.90
2022-08-17T13:38:03.233Z,99.90
2022-08-17T13:40:45.565Z,99.90
2022-08-17T13:43:38.563Z,99.90
2022-08-17T13:46:38.010Z,99.90
2022-08-17T13:49:11.718Z,99.90
2022-08-17T13:51:46.222Z,99.90
2022-08-17T13:54:34.549Z,99.90
2022-08-17T13:57:23.953Z,99.90
2022-08-17T14:00:08.580Z,99.90
2022-08-17T14:02:35.752Z,99.90
2022-08-17T14:05:06.332Z,99.90
2022-08-17T14:07:40.146Z,99.90
2022-08-17T14:10:17.207Z,99.90
2022-08-17T14:12:45.565Z,99.90
2022-08-17T14:15:17.156Z,99.90
2022-08-17T14:17:44.236Z,99.90
2022-08-17T14:20:13.730Z,99.90
2022-08-17T14:22:48.283Z,99.90
2022-08-17T14:25:22.567Z,99.90
2022-08-17T14:27:53.172Z,99.90
2022-08-17T14:30:29.019Z,99.90
2022-08-17T14:33:00.449Z,99.90
2022-08-17T14:35:29.088Z,99.90
2022-08-17T14:37:56.334Z,99.90
2022-08-17T14:40:25.144Z,99.90
2022-08-17T14:42:56.030Z,99.90
2022-08-17T14:45:31.470Z,99.90
2022-08-17T14:48:07.403Z,99.90
2022-08-17T14:50:41.101Z,99.90
2022-08-17T14:53:15.810Z,99.90
2022-08-17T14:55:45.790Z,99.90
2022-08-17T14:58:14.158Z,99.90
2022-08-17T15:00:43.567Z,99.90
2022-08-17T15:03:11.754Z,99.90
2022-08-17T15:05:40.190Z,99.90
2022-08-17T15:08:08.076Z,99.90
2022-08-17T15:10:35.972Z,99.90
2022-08-17T15:13:03.635Z,99.90
2022-08-17T15:15:30.894Z,99.90
2022-08-17T15:18:00.610Z,99.90
2022-08-17T15:20:30.028Z,99.90
2022-08-17T15:22:59.216Z,99.90
2022-08-17T15:25:32.034Z,99.90
2022-08-17T15:28:02.973Z,99.90
2022-08-17T15:30:31.288Z,99.90
2022-08-17T15:33:03.026Z,99.90
2022-08-17T15:35:33.486Z,99.90
2022-08-17T15:38:11.768Z,99.90
2022-08-17T15:40:46.995Z,99.90
2022-08-17T15:43:28.144Z,99.90
2022-08-17T15:46:12.275Z,99.90
2022-08-17T15:48:42.658Z,99.90
2022-08-17T15:51:26.893Z,99.90
2022-08-17T15:54:04.286Z,99.90
2022-08-17T15:56:44.107Z,99.90
2022-08-17T15:59:11.216Z,99.90
2022-08-17T16:03:13.108Z,99.90
2022-08-17T16:04:26.810Z,99.90
2022-08-17T16:07:00.382Z,99.90
2022-08-17T16:09:28.479Z,99.90
2022-08-17T16:11:56.309Z,99.90
2022-08-17T16:14:33.798Z,99.90
2022-08-17T16:17:04.492Z,99.90
2022-08-17T16:19:33.204Z,99.90
2022-08-17T16:22:02.272Z,99.90
2022-08-17T16:24:30.115Z,99.90
2022-08-17T16:26:57.225Z,99.90
2022-08-17T16:29:24.589Z,99.90
2022-08-17T16:31:51.901Z,99.90
2022-08-17T16:34:20.041Z,99.90
2022-08-17T16:36:54.852Z,99.90
2022-08-17T16:39:28.817Z,99.90
2022-08-17T16:41:57.485Z,99.90
2022-08-17T16:44:28.763Z,99.90
2022-08-17T16:46:57.377Z,99.90
2022-08-17T16:49:36.989Z,99.90
2022-08-17T16:52:10.584Z,99.90
2022-08-17T16:54:43.238Z,99.90
2022-08-17T16:57:11.577Z,99.90
2022-08-17T16:59:41.978Z,99.90
2022-08-17T17:02:14.257Z,99.90
2022-08-17T17:05:41.239Z,99.90
2022-08-17T17:08:26.666Z,99.90
2022-08-17T17:10:57.355Z,99.90
2022-08-17T17:13:51.837Z,99.90
2022-08-17T17:16:28.615Z,99.90
2022-08-17T17:19:36.051Z,99.90
2022-08-17T17:22:23.393Z,99.90
2022-08-17T17:25:16.223Z,99.90
2022-08-17T17:28:02.812Z,99.90
2022-08-17T17:30:56.728Z,99.90
2022-08-17T17:33:48.979Z,99.90
2022-08-17T17:36:50.268Z,99.90
2022-08-17T17:39:43.843Z,99.90
2022-08-17T17:42:20.212Z,99.90
2022-08-17T17:45:12.201Z,99.90
2022-08-17T17:47:39.321Z,99.90
2022-08-17T17:50:07.492Z,99.90
2022-08-17T17:52:47.908Z,99.90
2022-08-17T17:55:28.275Z,99.90
2022-08-17T17:58:04.643Z,99.90
2022-08-17T18:01:02.752Z,99.90
2022-08-17T18:04:08.340Z,99.90
2022-08-17T18:07:34.457Z,99.90
2022-08-17T18:10:30.325Z,99.90
2022-08-17T18:13:20.492Z,99.90
2022-08-17T18:15:52.286Z,99.90
2022-08-17T18:18:42.829Z,99.90
2022-08-17T18:21:24.334Z,99.90
2022-08-17T18:24:06.235Z,99.90
2022-08-17T18:26:33.351Z,99.90
2022-08-17T18:29:11.589Z,99.90
2022-08-17T18:31:38.755Z,99.90
2022-08-17T18:37:31.517Z,99.90
2022-08-17T18:40:00.959Z,99.90
2022-08-17T18:42:30.190Z,99.90
2022-08-17T18:44:57.298Z,99.90
2022-08-17T18:47:28.690Z,99.90
2022-08-17T18:50:41.313Z,99.90
2022-08-17T18:53:34.540Z,99.90
2022-08-17T18:56:33.427Z,99.90
2022-08-17T18:59:44.696Z,99.90
2022-08-17T19:02:23.264Z,99.90
2022-08-17T19:05:37.783Z,99.90
2022-08-17T19:08:30.521Z,99.90
2022-08-17T19:11:30.313Z,99.90
2022-08-17T19:14:16.619Z,99.90
2022-08-17T19:16:55.647Z,99.90
2022-08-17T19:19:46.490Z,99.90
2022-08-17T19:22:29.173Z,99.90
2022-08-17T19:25:24.534Z,99.90
2022-08-17T19:28:21.494Z,99.90
2022-08-17T19:31:03.952Z,99.90
2022-08-17T19:33:32.381Z,99.90
2022-08-17T19:36:18.705Z,99.90
2022-08-17T19:39:26.452Z,99.90
2022-08-17T19:42:48.509Z,99.90
2022-08-17T19:45:32.580Z,99.90
2022-08-17T19:48:52.234Z,99.90
2022-08-17T19:52:04.914Z,99.90
2022-08-17T19:54:52.343Z,99.90
2022-08-17T19:57:49.929Z,99.90
2022-08-17T20:00:19.399Z,99.90
2022-08-17T20:03:16.837Z,99.90
2022-08-17T20:06:15.279Z,99.90
2022-08-17T20:09:00.176Z,99.90
2022-08-17T20:12:02.199Z,99.90
2022-08-17T20:14:56.089Z,99.90
2022-08-17T20:17:47.606Z,99.90
2022-08-17T20:20:22.163Z,99.90
2022-08-17T20:23:09.289Z,99.90
2022-08-17T20:26:08.430Z,99.90
2022-08-17T20:28:38.989Z,99.90
2022-08-17T20:31:45.867Z,99.90
2022-08-17T20:34:38.104Z,99.90
2022-08-17T20:37:14.423Z,99.90
2022-08-17T20:40:09.475Z,99.90
2022-08-17T20:42:37.478Z,99.90
2022-08-17T20:45:25.974Z,99.90
2022-08-17T20:48:23.997Z,99.90
2022-08-17T20:50:56.177Z,99.90
2022-08-17T20:53:47.650Z,99.90
2022-08-17T20:56:43.362Z,99.90
2022-08-17T20:59:24.010Z,99.90
2022-08-17T21:02:12.346Z,99.90
2022-08-17T21:05:30.593Z,99.90
2022-08-17T21:08:16.850Z,99.90
2022-08-17T21:10:46.767Z,99.90
2022-08-17T21:13:15.706Z,99.90
2022-08-17T21:16:21.925Z,99.90
2022-08-17T21:19:24.101Z,99.90
2022-08-17T21:21:50.938Z,99.90
2022-08-17T21:24:25.811Z,99.90
2022-08-17T21:27:12.242Z,99.90
2022-08-17T21:30:35.513Z,99.90
2022-08-17T21:33:28.659Z,99.90
2022-08-17T21:36:13.452Z,99.90
2022-08-17T21:38:55.687Z,99.90
2022-08-17T21:41:33.320Z,99.90
2022-08-17T21:44:22.433Z,99.90
2022-08-17T21:46:52.952Z,99.90
2022-08-17T21:49:27.063Z,99.90
2022-08-17T21:51:56.410Z,99.90
2022-08-17T21:54:42.648Z,99.90
2022-08-17T21:57:20.845Z,99.90
2022-08-17T21:59:57.308Z,99.90
2022-08-17T22:02:37.404Z,99.90
2022-08-17T22:05:11.205Z,99.90
2022-08-17T22:07:58.821Z,99.90
2022-08-17T22:10:39.970Z,99.90
2022-08-17T22:13:18.089Z,99.90
2022-08-17T22:16:15.606Z,99.90
2022-08-17T22:18:58.711Z,99.90
2022-08-17T22:21:26.737Z,99.90
2022-08-17T22:24:21.530Z,99.90
2022-08-17T22:27:11.577Z,99.90
2022-08-17T22:29:52.913Z,99.90
2022-08-17T22:32:31.257Z,99.90
2022-08-17T22:35:28.843Z,99.90
2022-08-17T22:38:21.001Z,99.90
2022-08-17T22:41:14.504Z,99.90
2022-08-17T22:43:44.697Z,99.90
2022-08-17T22:46:12.705Z,99.90
2022-08-17T22:48:50.772Z,99.90
2022-08-17T22:51:27.395Z,99.90
2022-08-17T22:54:31.503Z,99.90
2022-08-17T22:57:23.442Z,99.90
2022-08-17T22:59:55.009Z,99.90
2022-08-17T23:02:32.703Z,99.90
2022-08-17T23:05:21.371Z,99.90
2022-08-17T23:07:52.880Z,99.90
2022-08-17T23:10:20.026Z,99.90
2022-08-17T23:12:47.539Z,99.90
2022-08-17T23:15:18.971Z,99.90
2022-08-17T23:17:46.616Z,99.90
2022-08-17T23:20:16.476Z,99.90
2022-08-17T23:22:51.844Z,99.90
2022-08-17T23:25:31.080Z,99.90
2022-08-17T23:28:04.142Z,99.90
2022-08-17T23:30:36.681Z,99.90
2022-08-17T23:33:10.351Z,99.90
2022-08-17T23:35:40.097Z,99.90
2022-08-17T23:38:12.956Z,99.90
2022-08-17T23:40:41.028Z,99.90
2022-08-17T23:43:24.197Z,99.90
2022-08-17T23:46:00.026Z,99.90
2022-08-17T23:48:35.084Z,99.90
2022-08-17T23:51:08.999Z,99.90
2022-08-17T23:53:42.480Z,99.90
2022-08-17T23:56:11.152Z,99.90
2022-08-17T23:58:42.216Z,99.90
